Terminal Aerodrome Forecast
Issued by NWS

Home | Current Version | Previous Version | Graphics & Text | Print | Product List | Glossary On
Versions: 1 2 3 4 5 6 7 8 9 10 11 12 13
000
FTUS43 KICT 061120
TAFHUT
TAF
KHUT 061120Z 0612/0712 18013KT P6SM BKN250
     FM061500 22013G22KT P6SM BKN250
     FM062100 25011KT P6SM VCTS BKN050CB
      TEMPO 0621/0623 VRB20G35KT 3SM +TSRA OVC035CB
     FM062300 36013G21KT 3SM +TSRA OVC040CB
     FM070500 01012KT 6SM -SHRA VCTS OVC035CB=

USA.gov is the U.S. government's official web portal to all federal, state and local government web resources and services.